createdAt,value
2023-05-24T00:02:15.781Z,78.98
2023-05-24T00:05:02.318Z,78.52
2023-05-24T00:07:48.322Z,78.16
2023-05-24T00:10:35.191Z,77.94
2023-05-24T00:13:21.399Z,78.33
2023-05-24T00:16:08.550Z,77.89
2023-05-24T00:18:54.912Z,77.56
2023-05-24T00:21:41.411Z,78.06
2023-05-24T00:24:27.532Z,77.86
2023-05-24T00:27:15.411Z,77.87
2023-05-24T00:30:01.979Z,78.16
2023-05-24T00:32:48.073Z,78.07
2023-05-24T00:35:34.677Z,78.35
2023-05-24T00:38:20.931Z,77.63
2023-05-24T00:41:07.525Z,77.77
2023-05-24T00:43:54.440Z,78.14
2023-05-24T00:46:42.516Z,77.73
2023-05-24T00:49:29.290Z,77.39
2023-05-24T00:52:16.988Z,77.68
2023-05-24T00:55:03.666Z,77.57
2023-05-24T00:57:53.757Z,77.56
2023-05-24T01:00:40.071Z,77.05
2023-05-24T01:03:31.994Z,77.69
2023-05-24T01:06:18.982Z,78.22
2023-05-24T01:09:08.330Z,77.65
2023-05-24T01:12:12.384Z,77.84
2023-05-24T01:15:19.031Z,77.85
2023-05-24T01:18:16.673Z,77.87
2023-05-24T01:21:31.164Z,78.85
2023-05-24T01:24:39.170Z,78.19
2023-05-24T01:27:28.028Z,78.33
2023-05-24T01:30:14.648Z,77.81
2023-05-24T01:33:01.913Z,77.39
2023-05-24T01:35:48.150Z,78.37
2023-05-24T01:38:35.413Z,77.58
2023-05-24T01:41:36.384Z,77.99
2023-05-24T01:44:36.836Z,78.03
2023-05-24T01:47:49.615Z,77.83
2023-05-24T01:50:45.447Z,77.36
2023-05-24T01:53:34.581Z,76.80
2023-05-24T01:56:21.985Z,77.11
2023-05-24T01:59:09.117Z,77.64
2023-05-24T02:01:56.523Z,77.54
2023-05-24T02:04:43.107Z,77.35
2023-05-24T02:07:29.654Z,77.40
2023-05-24T02:10:16.364Z,77.15
2023-05-24T02:13:02.534Z,77.17
2023-05-24T02:15:49.485Z,77.33
2023-05-24T02:18:35.850Z,76.87
2023-05-24T02:21:25.959Z,76.96
2023-05-24T02:24:12.656Z,77.19
2023-05-24T02:27:00.063Z,76.90
2023-05-24T02:29:47.709Z,77.58
2023-05-24T02:32:38.314Z,77.50
2023-05-24T02:35:24.391Z,77.88
2023-05-24T02:38:10.851Z,78.19
2023-05-24T02:40:56.915Z,78.07
2023-05-24T02:43:47.134Z,77.89
2023-05-24T02:46:33.587Z,78.06
2023-05-24T02:49:20.262Z,77.79
2023-05-24T02:52:07.205Z,77.08
2023-05-24T02:54:53.529Z,76.91
2023-05-24T02:57:41.500Z,76.03
2023-05-24T03:00:28.817Z,76.25
2023-05-24T03:03:15.111Z,76.65
2023-05-24T03:06:01.771Z,76.82
2023-05-24T03:08:49.425Z,76.74
2023-05-24T03:11:35.633Z,76.89
2023-05-24T03:14:24.003Z,77.05
2023-05-24T03:17:11.170Z,77.04
2023-05-24T03:19:57.021Z,76.85
2023-05-24T03:22:44.094Z,77.10
2023-05-24T03:25:30.188Z,76.81
2023-05-24T03:28:17.560Z,76.74
2023-05-24T03:31:03.828Z,76.92
2023-05-24T03:33:50.932Z,76.68
2023-05-24T03:36:36.711Z,76.86
2023-05-24T03:39:24.200Z,76.96
2023-05-24T03:42:33.679Z,76.39
2023-05-24T03:45:34.535Z,76.53
2023-05-24T03:48:24.894Z,75.99
2023-05-24T03:51:12.894Z,75.93
2023-05-24T03:53:59.354Z,76.26
2023-05-24T03:56:46.954Z,76.08
2023-05-24T03:59:32.873Z,75.65
2023-05-24T04:02:19.746Z,75.62
2023-05-24T04:05:10.235Z,76.47
2023-05-24T04:07:58.214Z,76.75
2023-05-24T04:10:44.611Z,76.98
2023-05-24T04:13:32.294Z,75.84
2023-05-24T04:16:18.758Z,76.25
2023-05-24T04:19:06.108Z,76.38
2023-05-24T04:21:52.370Z,76.19
2023-05-24T04:24:40.059Z,76.42
2023-05-24T04:27:26.236Z,76.41
2023-05-24T04:30:14.644Z,76.31
2023-05-24T04:33:00.694Z,75.99
2023-05-24T04:35:49.003Z,76.25
2023-05-24T04:38:36.293Z,76.63
2023-05-24T04:41:23.383Z,76.45
2023-05-24T04:44:09.923Z,76.17
2023-05-24T04:46:56.305Z,76.31
2023-05-24T04:49:42.452Z,76.14
2023-05-24T04:52:30.711Z,77.07
2023-05-24T04:55:17.183Z,76.56
2023-05-24T04:58:03.335Z,76.77
2023-05-24T05:00:50.181Z,77.26
2023-05-24T05:03:37.813Z,76.30
2023-05-24T05:06:24.985Z,77.35
2023-05-24T05:09:14.076Z,76.91
2023-05-24T05:12:00.309Z,76.54
2023-05-24T05:14:47.359Z,76.57
2023-05-24T05:17:33.661Z,76.86
2023-05-24T05:20:20.798Z,77.06
2023-05-24T05:23:06.855Z,76.63
2023-05-24T05:25:53.883Z,76.50
2023-05-24T05:28:40.541Z,77.16
2023-05-24T05:31:26.946Z,76.65
2023-05-24T05:34:13.018Z,76.29
2023-05-24T05:36:58.915Z,75.93
2023-05-24T05:39:44.784Z,75.96
2023-05-24T05:42:31.324Z,76.44
2023-05-24T05:45:17.199Z,75.98
2023-05-24T05:48:04.267Z,75.48
2023-05-24T05:50:51.245Z,75.56
2023-05-24T05:53:39.027Z,75.47
2023-05-24T05:56:25.084Z,75.03
2023-05-24T05:59:15.878Z,74.96
2023-05-24T06:02:03.403Z,75.10
2023-05-24T06:04:51.130Z,75.29
2023-05-24T06:07:38.741Z,74.56
2023-05-24T06:10:25.620Z,74.69
2023-05-24T06:13:11.758Z,74.53
2023-05-24T06:16:01.644Z,74.23
2023-05-24T06:19:01.366Z,74.17
2023-05-24T06:21:52.606Z,73.88
2023-05-24T06:24:39.724Z,73.29
2023-05-24T06:27:25.878Z,73.41
2023-05-24T06:30:13.541Z,74.32
2023-05-24T06:33:01.688Z,73.32
2023-05-24T06:35:48.055Z,72.14
2023-05-24T06:38:36.814Z,72.20
2023-05-24T06:41:22.927Z,71.64
2023-05-24T06:44:09.848Z,70.61
2023-05-24T06:46:57.797Z,70.17
2023-05-24T06:49:48.641Z,70.33
2023-05-24T06:52:34.438Z,69.90
2023-05-24T06:55:22.202Z,70.08
2023-05-24T06:58:08.217Z,69.69
2023-05-24T07:00:54.878Z,69.39
2023-05-24T07:03:40.898Z,69.72
2023-05-24T07:06:27.570Z,69.99
2023-05-24T07:09:14.354Z,68.96
2023-05-24T07:12:00.852Z,68.79
2023-05-24T07:14:47.962Z,69.63
2023-05-24T07:17:35.166Z,69.14
2023-05-24T07:20:21.595Z,69.44
2023-05-24T07:23:08.505Z,68.74
2023-05-24T07:25:54.420Z,69.03
2023-05-24T07:28:40.609Z,68.96
2023-05-24T07:31:27.501Z,69.09
2023-05-24T07:34:13.927Z,68.71
2023-05-24T07:37:00.769Z,68.48
2023-05-24T07:39:47.286Z,68.93
2023-05-24T07:42:33.838Z,69.48
2023-05-24T07:45:20.877Z,69.39
2023-05-24T07:48:07.345Z,69.27
2023-05-24T07:50:55.631Z,69.24
2023-05-24T07:53:41.953Z,69.12
2023-05-24T07:56:28.222Z,68.93
2023-05-24T07:59:14.104Z,68.48
2023-05-24T08:02:05.935Z,68.68
2023-05-24T08:04:51.858Z,68.27
2023-05-24T08:07:38.046Z,68.28
2023-05-24T08:10:25.322Z,68.27
2023-05-24T08:13:12.290Z,67.37
2023-05-24T08:15:58.653Z,66.97
2023-05-24T08:18:45.163Z,67.55
2023-05-24T08:21:31.939Z,67.31
2023-05-24T08:24:18.109Z,67.33
2023-05-24T08:27:04.685Z,66.94
2023-05-24T08:29:50.785Z,67.68
2023-05-24T08:32:38.467Z,66.73
2023-05-24T08:35:26.214Z,65.99
2023-05-24T08:38:12.876Z,65.05
2023-05-24T08:41:00.172Z,64.49
2023-05-24T08:43:49.790Z,65.18
2023-05-24T08:46:37.126Z,65.42
2023-05-24T08:49:24.488Z,63.63
2023-05-24T08:52:13.104Z,64.45
2023-05-24T08:54:59.997Z,64.52
2023-05-24T08:57:48.946Z,64.44
2023-05-24T09:00:34.882Z,64.74
2023-05-24T09:03:23.471Z,64.34
2023-05-24T09:06:11.145Z,65.36
2023-05-24T09:09:00.755Z,64.57
2023-05-24T09:11:49.587Z,63.57
2023-05-24T09:14:36.182Z,63.81
2023-05-24T09:17:22.726Z,64.41
2023-05-24T09:20:11.371Z,63.63
2023-05-24T09:22:59.227Z,63.57
2023-05-24T09:25:47.566Z,62.29
2023-05-24T09:28:33.619Z,61.81
2023-05-24T09:31:37.829Z,60.97
2023-05-24T09:34:24.103Z,62.01
2023-05-24T09:37:17.518Z,60.27
2023-05-24T09:40:07.231Z,58.34
2023-05-24T09:43:10.506Z,59.49
2023-05-24T09:45:58.294Z,60.54
2023-05-24T09:49:04.133Z,60.95
2023-05-24T09:51:52.846Z,60.63
2023-05-24T09:54:42.901Z,60.94
2023-05-24T09:57:29.205Z,60.53
2023-05-24T10:00:23.548Z,59.94
2023-05-24T10:03:12.175Z,59.41
2023-05-24T10:05:59.659Z,58.99
2023-05-24T10:08:48.364Z,58.52
2023-05-24T10:11:37.601Z,59.57
2023-05-24T10:14:25.351Z,56.57
2023-05-24T10:17:11.853Z,55.68
2023-05-24T10:19:58.649Z,59.10
2023-05-24T10:22:48.220Z,58.16
2023-05-24T10:25:35.605Z,59.63
2023-05-24T10:28:24.420Z,59.89
2023-05-24T10:31:19.459Z,57.33
2023-05-24T10:34:08.645Z,57.95
2023-05-24T10:36:55.827Z,57.75
2023-05-24T10:39:43.108Z,57.74
2023-05-24T10:42:32.536Z,55.53
2023-05-24T10:45:25.164Z,51.86
2023-05-24T10:48:14.229Z,53.21
2023-05-24T10:51:30.211Z,52.57
2023-05-24T10:54:18.811Z,53.46
2023-05-24T10:57:07.466Z,53.79
2023-05-24T10:59:57.433Z,52.80
2023-05-24T11:02:48.608Z,52.25
2023-05-24T11:05:36.511Z,52.74
2023-05-24T11:08:29.860Z,52.67
2023-05-24T11:11:26.491Z,52.00
2023-05-24T11:14:18.787Z,50.94
2023-05-24T11:17:06.791Z,51.98
2023-05-24T11:19:55.396Z,51.02
2023-05-24T11:22:42.036Z,51.44
2023-05-24T11:25:28.463Z,52.69
2023-05-24T11:28:14.671Z,50.86
2023-05-24T11:31:10.111Z,50.14
2023-05-24T11:33:56.218Z,50.07
2023-05-24T11:36:42.605Z,50.45
2023-05-24T11:39:33.870Z,50.47
2023-05-24T11:42:22.457Z,50.25
2023-05-24T11:45:10.166Z,50.37
2023-05-24T11:47:56.584Z,49.01
2023-05-24T11:53:34.310Z,48.60
2023-05-24T11:56:21.886Z,49.11
2023-05-24T11:59:15.547Z,49.30
2023-05-24T12:02:11.727Z,49.65
2023-05-24T12:05:13.953Z,51.01
2023-05-24T12:08:06.061Z,49.60
2023-05-24T12:10:53.183Z,50.50
2023-05-24T12:13:40.520Z,50.33
2023-05-24T12:16:30.318Z,50.30
2023-05-24T12:19:31.660Z,48.85
2023-05-24T12:22:30.442Z,48.92
2023-05-24T12:25:21.254Z,48.81
2023-05-24T12:28:07.626Z,49.27
2023-05-24T12:30:54.892Z,49.77
2023-05-24T12:33:41.218Z,50.00
2023-05-24T12:36:30.003Z,49.80
2023-05-24T12:39:21.363Z,47.42
2023-05-24T12:42:08.225Z,48.66
2023-05-24T12:44:54.476Z,50.21
2023-05-24T12:47:41.482Z,50.00
2023-05-24T12:50:28.139Z,48.81
2023-05-24T12:53:14.074Z,49.88
2023-05-24T12:56:01.755Z,51.85
2023-05-24T12:58:47.781Z,50.67
2023-05-24T13:01:34.029Z,49.50
2023-05-24T13:04:23.358Z,50.65
2023-05-24T13:07:10.590Z,49.26
2023-05-24T13:09:58.328Z,50.17
2023-05-24T13:12:44.530Z,50.39
2023-05-24T13:15:30.896Z,50.57
2023-05-24T13:18:17.258Z,50.33
2023-05-24T13:21:06.228Z,50.41
2023-05-24T13:23:52.424Z,49.57
2023-05-24T13:26:39.117Z,50.72
2023-05-24T13:32:15.211Z,49.92
2023-05-24T13:35:02.162Z,50.30
2023-05-24T13:37:49.816Z,49.42
2023-05-24T13:40:40.816Z,50.00
2023-05-24T13:43:27.970Z,49.69
2023-05-24T13:46:14.671Z,49.90
2023-05-24T13:49:00.980Z,50.81
2023-05-24T13:51:47.251Z,50.23
2023-05-24T13:54:34.331Z,48.79
2023-05-24T13:57:22.662Z,49.46
2023-05-24T14:00:11.164Z,50.28
2023-05-24T14:02:58.991Z,51.50
2023-05-24T14:05:45.061Z,51.25
2023-05-24T14:08:31.845Z,51.72
2023-05-24T14:11:17.921Z,52.45
2023-05-24T14:16:55.213Z,50.91
2023-05-24T14:19:41.813Z,50.18
2023-05-24T14:22:29.575Z,50.26
2023-05-24T14:25:15.914Z,50.97
2023-05-24T14:28:03.712Z,50.28
2023-05-24T14:30:52.196Z,50.85
2023-05-24T14:33:38.716Z,50.75
2023-05-24T14:36:25.037Z,50.43
2023-05-24T14:39:11.596Z,50.18
2023-05-24T14:41:57.905Z,50.39
2023-05-24T14:44:44.240Z,50.51
2023-05-24T14:47:31.043Z,50.28
2023-05-24T14:50:17.566Z,50.16
2023-05-24T14:53:09.994Z,49.66
2023-05-24T14:55:57.356Z,50.49
2023-05-24T14:58:43.530Z,50.57
2023-05-24T15:01:30.457Z,51.33
2023-05-24T15:04:17.190Z,51.45
2023-05-24T15:07:03.774Z,51.13
2023-05-24T15:09:50.361Z,50.89
2023-05-24T15:12:36.880Z,51.12
2023-05-24T15:15:23.606Z,51.19
2023-05-24T15:18:09.658Z,50.84
2023-05-24T15:20:56.710Z,51.02
2023-05-24T15:23:42.750Z,50.93
2023-05-24T15:26:28.993Z,50.94
2023-05-24T15:29:15.084Z,50.45
2023-05-24T15:32:02.115Z,51.09
2023-05-24T15:34:47.889Z,50.72
2023-05-24T15:37:35.151Z,51.09
2023-05-24T15:40:24.271Z,51.02
2023-05-24T15:43:13.099Z,51.08
2023-05-24T15:45:59.284Z,51.17
2023-05-24T15:48:46.658Z,50.69
2023-05-24T15:52:02.613Z,50.97
2023-05-24T15:54:40.268Z,50.03
2023-05-24T15:57:28.550Z,50.39
2023-05-24T16:00:15.534Z,50.91
2023-05-24T16:03:02.623Z,50.90
2023-05-24T16:05:49.520Z,51.13
2023-05-24T16:08:35.847Z,50.52
2023-05-24T16:11:23.696Z,50.69
2023-05-24T16:14:10.547Z,50.87
2023-05-24T16:16:58.868Z,50.53
2023-05-24T16:19:49.842Z,50.42
2023-05-24T16:22:37.265Z,50.76
2023-05-24T16:25:24.793Z,50.63
2023-05-24T16:28:10.995Z,50.73
2023-05-24T16:30:59.285Z,50.29
2023-05-24T16:33:45.448Z,51.17
2023-05-24T16:36:32.505Z,51.19
2023-05-24T16:39:18.500Z,50.85
2023-05-24T16:42:08.596Z,50.44
2023-05-24T16:44:54.728Z,50.95
2023-05-24T16:47:41.193Z,50.89
2023-05-24T16:50:27.243Z,50.65
2023-05-24T16:53:14.565Z,50.70
2023-05-24T16:56:00.744Z,51.58
2023-05-24T16:58:47.549Z,52.42
2023-05-24T17:01:33.694Z,52.25
2023-05-24T17:04:20.663Z,52.45
2023-05-24T17:07:06.849Z,52.01
2023-05-24T17:09:53.788Z,52.03
2023-05-24T17:12:41.753Z,52.36
2023-05-24T17:15:28.568Z,51.78
2023-05-24T17:18:14.711Z,51.76
2023-05-24T17:21:06.500Z,52.09
2023-05-24T17:23:52.714Z,51.90
2023-05-24T17:26:40.552Z,51.73
2023-05-24T17:29:26.803Z,51.83
2023-05-24T17:32:13.477Z,51.97
2023-05-24T17:34:59.578Z,52.30
2023-05-24T17:37:46.822Z,52.37
2023-05-24T17:40:33.213Z,52.63
2023-05-24T17:43:20.606Z,52.06
2023-05-24T17:46:07.545Z,52.43
2023-05-24T17:48:54.388Z,52.73
2023-05-24T17:51:40.586Z,52.88
2023-05-24T17:54:27.906Z,52.71
2023-05-24T17:57:14.486Z,53.10
2023-05-24T18:00:01.492Z,53.22
2023-05-24T18:02:47.440Z,53.67
2023-05-24T18:05:34.694Z,53.62
2023-05-24T18:08:21.869Z,53.84
2023-05-24T18:11:09.208Z,53.97
2023-05-24T18:13:57.461Z,54.10
2023-05-24T18:16:46.132Z,54.19
2023-05-24T18:19:32.526Z,54.25
2023-05-24T18:22:19.335Z,54.61
2023-05-24T18:25:05.956Z,54.71
2023-05-24T18:27:52.294Z,55.02
2023-05-24T18:30:42.518Z,55.08
2023-05-24T18:33:30.020Z,55.10
2023-05-24T18:36:16.686Z,55.48
2023-05-24T18:39:03.831Z,55.81
2023-05-24T18:41:50.972Z,55.82
2023-05-24T18:44:38.289Z,56.32
2023-05-24T18:47:24.644Z,56.08
2023-05-24T18:50:12.264Z,56.34
2023-05-24T18:52:58.723Z,56.19
2023-05-24T18:55:45.356Z,56.45
2023-05-24T18:58:31.737Z,56.49
2023-05-24T19:01:19.520Z,56.74
2023-05-24T19:04:05.734Z,56.80
2023-05-24T19:06:52.149Z,56.87
2023-05-24T19:09:38.626Z,56.87
2023-05-24T19:12:25.975Z,56.96
2023-05-24T19:15:14.346Z,56.88
2023-05-24T19:18:00.532Z,57.07
2023-05-24T19:20:46.856Z,56.84
2023-05-24T19:23:33.620Z,57.38
2023-05-24T19:26:19.457Z,57.81
2023-05-24T19:29:06.108Z,57.98
2023-05-24T19:31:52.373Z,57.94
2023-05-24T19:34:42.658Z,57.67
2023-05-24T19:37:28.628Z,57.80
2023-05-24T19:40:15.435Z,58.00
2023-05-24T19:43:01.327Z,58.48
2023-05-24T19:45:52.594Z,59.03
2023-05-24T19:48:39.193Z,59.59
2023-05-24T19:51:26.310Z,58.65
2023-05-24T19:54:12.940Z,58.72
2023-05-24T19:57:00.842Z,58.69
2023-05-24T19:59:46.982Z,58.89
2023-05-24T20:02:36.151Z,59.13
2023-05-24T20:05:23.024Z,59.48
2023-05-24T20:08:09.359Z,59.19
2023-05-24T20:10:56.028Z,59.25
2023-05-24T20:13:42.856Z,59.61
2023-05-24T20:16:29.820Z,59.90
2023-05-24T20:19:16.398Z,60.31
2023-05-24T20:22:02.451Z,60.24
2023-05-24T20:24:48.935Z,60.00
2023-05-24T20:27:35.348Z,60.16
2023-05-24T20:30:22.012Z,60.36
2023-05-24T20:33:07.918Z,60.49
2023-05-24T20:35:54.881Z,60.39
2023-05-24T20:38:40.913Z,60.82
2023-05-24T20:41:30.745Z,61.18
2023-05-24T20:44:17.497Z,61.18
2023-05-24T20:47:04.310Z,61.32
2023-05-24T20:49:50.652Z,61.01
2023-05-24T20:52:37.371Z,61.36
2023-05-24T20:55:25.209Z,61.08
2023-05-24T20:58:13.197Z,61.41
2023-05-24T21:00:59.675Z,61.37
2023-05-24T21:03:46.409Z,61.10
2023-05-24T21:06:34.346Z,61.13
2023-05-24T21:09:21.226Z,61.28
2023-05-24T21:12:07.507Z,61.42
2023-05-24T21:14:54.366Z,62.27
2023-05-24T21:17:41.732Z,62.33
2023-05-24T21:20:28.473Z,62.29
2023-05-24T21:23:14.526Z,61.92
2023-05-24T21:26:02.512Z,62.03
2023-05-24T21:28:48.748Z,62.08
2023-05-24T21:31:37.048Z,62.32
2023-05-24T21:34:23.236Z,62.77
2023-05-24T21:37:09.890Z,62.75
2023-05-24T21:39:55.780Z,62.64
2023-05-24T21:42:42.453Z,62.59
2023-05-24T21:45:28.521Z,62.79
2023-05-24T21:48:15.528Z,62.92
2023-05-24T21:51:01.670Z,62.78
2023-05-24T21:53:47.614Z,63.01
2023-05-24T21:56:33.437Z,63.58
2023-05-24T21:59:21.725Z,64.16
2023-05-24T22:02:07.992Z,64.04
2023-05-24T22:04:54.917Z,64.05
2023-05-24T22:07:40.952Z,64.08
2023-05-24T22:10:27.847Z,64.47
2023-05-24T22:13:13.791Z,64.75
2023-05-24T22:16:00.912Z,64.94
2023-05-24T22:18:48.379Z,65.25
2023-05-24T22:21:34.570Z,65.33
2023-05-24T22:24:21.506Z,65.43
2023-05-24T22:27:09.976Z,65.64
2023-05-24T22:29:56.163Z,65.71
2023-05-24T22:32:43.398Z,65.47
2023-05-24T22:35:29.843Z,65.50
2023-05-24T22:38:16.752Z,65.49
2023-05-24T22:41:03.105Z,65.45
2023-05-24T22:43:50.641Z,65.28
2023-05-24T22:46:37.760Z,65.61
2023-05-24T22:49:25.163Z,65.95
2023-05-24T22:52:11.911Z,65.96
2023-05-24T22:54:58.686Z,65.56
2023-05-24T22:57:44.675Z,65.47
2023-05-24T23:00:31.709Z,65.86
2023-05-24T23:03:18.290Z,66.33
2023-05-24T23:06:04.879Z,66.91
2023-05-24T23:08:51.530Z,66.56
2023-05-24T23:11:38.084Z,66.62
2023-05-24T23:14:30.333Z,66.89
2023-05-24T23:17:20.673Z,66.61
2023-05-24T23:20:10.126Z,66.77
2023-05-24T23:22:56.841Z,66.99
2023-05-24T23:25:43.505Z,67.08
2023-05-24T23:28:30.848Z,67.23
2023-05-24T23:31:18.407Z,67.41
2023-05-24T23:34:05.626Z,67.60
2023-05-24T23:36:52.163Z,67.71
2023-05-24T23:39:39.458Z,67.61
2023-05-24T23:42:26.431Z,67.07
2023-05-24T23:45:16.034Z,66.73
2023-05-24T23:48:04.523Z,66.27
2023-05-24T23:50:54.392Z,65.81
2023-05-24T23:53:41.496Z,65.85
2023-05-24T23:56:28.072Z,66.43
2023-05-24T23:59:15.995Z,66.40
